createdAt,value
2018-04-15T00:00:09.650Z,6.50
2018-04-15T00:01:09.803Z,5.40
2018-04-15T00:02:09.957Z,6.00
2018-04-15T00:03:10.108Z,6.10
2018-04-15T00:04:10.260Z,5.20
2018-04-15T00:05:10.411Z,6.20
2018-04-15T00:06:10.560Z,5.10
2018-04-15T00:07:10.716Z,4.80
2018-04-15T00:08:10.864Z,4.50
2018-04-15T00:09:11.015Z,5.20
2018-04-15T00:10:11.166Z,5.50
2018-04-15T00:11:11.318Z,7.40
2018-04-15T00:12:11.470Z,4.80
2018-04-15T00:13:11.620Z,4.90
2018-04-15T00:14:11.765Z,4.10
2018-04-15T00:15:11.915Z,4.50
2018-04-15T00:16:12.065Z,4.80
2018-04-15T00:17:12.217Z,3.80
2018-04-15T00:18:12.365Z,4.80
2018-04-15T00:19:12.520Z,4.70
2018-04-15T00:20:12.671Z,4.10
2018-04-15T00:21:12.823Z,3.80
2018-04-15T00:22:12.974Z,4.90
2018-04-15T00:23:13.125Z,4.80
2018-04-15T00:24:13.275Z,5.10
2018-04-15T00:25:13.426Z,4.40
2018-04-15T00:26:13.578Z,4.90
2018-04-15T00:27:13.734Z,4.50
2018-04-15T00:28:13.881Z,5.10
2018-04-15T00:29:14.033Z,4.50
2018-04-15T00:30:14.182Z,4.60
2018-04-15T00:31:14.338Z,4.30
2018-04-15T00:32:14.491Z,6.00
2018-04-15T00:33:14.639Z,5.60
2018-04-15T00:34:14.790Z,4.90
2018-04-15T00:35:14.946Z,4.90
2018-04-15T00:36:15.094Z,5.10
2018-04-15T00:37:15.245Z,4.80
2018-04-15T00:38:15.397Z,5.50
2018-04-15T00:39:15.545Z,4.40
2018-04-15T00:40:15.699Z,4.60
2018-04-15T00:41:15.845Z,4.60
2018-04-15T00:42:15.996Z,4.30
2018-04-15T00:43:16.148Z,4.80
2018-04-15T00:44:16.300Z,5.60
2018-04-15T00:45:16.450Z,5.10
2018-04-15T00:46:16.604Z,5.00
2018-04-15T00:47:16.750Z,5.50
2018-04-15T00:48:16.902Z,5.20
2018-04-15T00:49:17.054Z,5.20
2018-04-15T00:50:17.202Z,6.40
2018-04-15T00:51:17.353Z,6.70
2018-04-15T00:52:17.506Z,7.40
2018-04-15T00:53:17.655Z,8.20
2018-04-15T00:54:17.806Z,7.40
2018-04-15T00:55:17.956Z,7.10
2018-04-15T00:56:18.109Z,7.80
2018-04-15T00:57:18.259Z,7.30
2018-04-15T00:58:18.413Z,7.10
2018-04-15T00:59:18.564Z,7.10
2018-04-15T01:00:18.717Z,6.60
2018-04-15T01:01:18.863Z,6.00
2018-04-15T01:02:19.018Z,5.70
2018-04-15T01:03:19.165Z,5.60
2018-04-15T01:04:19.319Z,5.60
2018-04-15T01:05:19.468Z,5.00
2018-04-15T01:06:19.620Z,5.00
2018-04-15T01:07:19.772Z,5.10
2018-04-15T01:08:19.922Z,5.40
2018-04-15T01:09:20.073Z,4.90
2018-04-15T01:10:20.222Z,5.30
2018-04-15T01:11:20.374Z,5.80
2018-04-15T01:12:20.523Z,5.20
2018-04-15T01:13:20.677Z,5.00
2018-04-15T01:14:20.827Z,5.40
2018-04-15T01:15:20.980Z,5.40
2018-04-15T01:16:21.131Z,5.90
2018-04-15T01:17:21.280Z,5.90
2018-04-15T01:18:21.432Z,6.20
2018-04-15T01:19:21.582Z,5.50
2018-04-15T01:20:21.728Z,5.50
2018-04-15T01:21:21.882Z,5.80
2018-04-15T01:22:22.034Z,5.40
2018-04-15T01:23:22.184Z,5.70
2018-04-15T01:24:22.334Z,5.40
2018-04-15T01:25:22.486Z,5.50
2018-04-15T01:26:22.637Z,6.20
2018-04-15T01:27:22.792Z,6.10
2018-04-15T01:28:22.941Z,5.30
2018-04-15T01:29:23.092Z,5.10
2018-04-15T01:30:23.243Z,5.70
2018-04-15T01:31:23.394Z,6.40
2018-04-15T01:32:23.545Z,5.60
2018-04-15T01:33:23.697Z,6.00
2018-04-15T01:34:23.850Z,5.20
2018-04-15T01:35:24.001Z,4.70
2018-04-15T01:36:24.156Z,5.40
2018-04-15T01:37:24.309Z,4.80
2018-04-15T01:38:24.459Z,4.40
2018-04-15T01:39:24.609Z,4.60
2018-04-15T01:40:24.760Z,5.30
2018-04-15T01:41:24.913Z,4.70
2018-04-15T01:42:25.060Z,5.00
2018-04-15T01:43:25.213Z,4.60
2018-04-15T01:44:25.362Z,4.90
2018-04-15T01:45:25.512Z,5.00
2018-04-15T01:46:25.663Z,5.00
2018-04-15T01:47:25.818Z,5.30
2018-04-15T01:48:25.968Z,6.20
2018-04-15T01:49:26.121Z,4.70
2018-04-15T01:50:26.269Z,4.70
2018-04-15T01:51:26.421Z,5.00
2018-04-15T01:52:26.570Z,5.20
2018-04-15T01:53:26.722Z,4.50
2018-04-15T01:54:26.873Z,5.70
2018-04-15T01:55:27.024Z,5.90
2018-04-15T01:56:27.176Z,5.40
2018-04-15T01:57:27.325Z,5.00
2018-04-15T01:58:27.477Z,4.90
2018-04-15T01:59:27.629Z,5.60
2018-04-15T02:00:27.782Z,5.20
2018-04-15T02:01:27.931Z,5.40
2018-04-15T02:02:28.080Z,4.80
2018-04-15T02:03:28.236Z,5.70
2018-04-15T02:04:28.383Z,5.10
2018-04-15T02:05:28.535Z,4.70
2018-04-15T02:06:28.686Z,6.90
2018-04-15T02:07:28.837Z,4.60
2018-04-15T02:08:28.988Z,4.90
2018-04-15T02:09:29.136Z,5.00
2018-04-15T02:10:29.290Z,4.10
2018-04-15T02:11:29.441Z,4.70
2018-04-15T02:12:29.591Z,4.30
2018-04-15T02:13:29.743Z,5.00
2018-04-15T02:14:29.895Z,4.80
2018-04-15T02:15:30.052Z,5.20
2018-04-15T02:16:30.200Z,4.80
2018-04-15T02:17:30.348Z,4.70
2018-04-15T02:18:30.503Z,5.20
2018-04-15T02:19:30.653Z,4.30
2018-04-15T02:20:30.803Z,4.80
2018-04-15T02:21:30.953Z,5.10
2018-04-15T02:22:31.106Z,4.90
2018-04-15T02:23:31.258Z,6.10
2018-04-15T02:24:31.410Z,5.20
2018-04-15T02:25:31.561Z,5.40
2018-04-15T02:26:31.712Z,4.90
2018-04-15T02:27:31.861Z,4.40
2018-04-15T02:28:32.013Z,4.90
2018-04-15T02:29:32.164Z,5.10
2018-04-15T02:30:32.313Z,4.90
2018-04-15T02:31:32.461Z,5.00
2018-04-15T02:32:32.614Z,6.40
2018-04-15T02:33:32.765Z,4.90
2018-04-15T02:34:32.916Z,5.30
2018-04-15T02:35:33.073Z,5.20
2018-04-15T02:36:33.218Z,5.30
2018-04-15T02:37:33.370Z,5.00
2018-04-15T02:38:33.518Z,5.80
2018-04-15T02:39:33.669Z,5.30
2018-04-15T02:40:33.822Z,5.40
2018-04-15T02:41:33.972Z,5.20
2018-04-15T02:42:34.123Z,5.20
2018-04-15T02:43:34.272Z,5.50
2018-04-15T02:44:34.420Z,5.30
2018-04-15T02:45:34.569Z,5.10
2018-04-15T02:46:34.720Z,5.20
2018-04-15T02:47:34.872Z,5.60
2018-04-15T02:48:35.031Z,5.70
2018-04-15T02:49:35.176Z,5.40
2018-04-15T02:50:35.326Z,7.00
2018-04-15T02:51:35.476Z,5.50
2018-04-15T02:52:35.617Z,5.90
2018-04-15T02:53:35.765Z,5.90
2018-04-15T02:54:35.917Z,7.70
2018-04-15T02:55:36.066Z,5.60
2018-04-15T02:56:36.221Z,5.90
2018-04-15T02:57:36.366Z,5.70
2018-04-15T02:58:36.522Z,7.30
2018-04-15T02:59:36.671Z,5.30
2018-04-15T03:00:36.823Z,5.60
2018-04-15T03:01:36.974Z,5.60
2018-04-15T03:02:37.157Z,5.50
2018-04-15T03:03:37.305Z,5.40
2018-04-15T03:04:37.457Z,5.80
2018-04-15T03:05:37.606Z,5.60
2018-04-15T03:06:37.756Z,5.90
2018-04-15T03:07:37.907Z,5.70
2018-04-15T03:08:38.059Z,6.20
2018-04-15T03:09:38.209Z,6.10
2018-04-15T03:10:38.361Z,6.30
2018-04-15T03:11:38.510Z,6.40
2018-04-15T03:12:38.662Z,5.70
2018-04-15T03:13:38.810Z,5.90
2018-04-15T03:14:38.972Z,7.30
2018-04-15T03:15:39.110Z,6.60
2018-04-15T03:16:39.260Z,6.20
2018-04-15T03:17:39.409Z,5.80
2018-04-15T03:18:39.561Z,5.40
2018-04-15T03:19:39.709Z,6.30
2018-04-15T03:20:39.859Z,5.60
2018-04-15T03:21:40.011Z,5.60
2018-04-15T03:22:40.163Z,6.40
2018-04-15T03:23:40.310Z,6.70
2018-04-15T03:24:40.461Z,6.20
2018-04-15T03:25:40.611Z,6.50
2018-04-15T03:26:40.760Z,6.10
2018-04-15T03:27:40.912Z,6.40
2018-04-15T03:28:41.060Z,6.20
2018-04-15T03:29:41.210Z,6.20
2018-04-15T03:30:41.359Z,6.60
2018-04-15T03:31:41.509Z,6.10
2018-04-15T03:32:41.658Z,6.90
2018-04-15T03:33:41.811Z,6.30
2018-04-15T03:34:41.960Z,6.50
2018-04-15T03:35:42.112Z,7.20
2018-04-15T03:36:42.263Z,8.60
2018-04-15T03:37:42.414Z,7.00
2018-04-15T03:38:42.567Z,6.20
2018-04-15T03:39:42.716Z,6.50
2018-04-15T03:40:42.865Z,6.60
2018-04-15T03:41:43.060Z,6.50
2018-04-15T03:42:43.166Z,6.30
2018-04-15T03:43:43.315Z,6.70
2018-04-15T03:44:43.463Z,6.90
2018-04-15T03:45:43.616Z,7.10
2018-04-15T03:46:43.763Z,6.40
2018-04-15T03:47:43.913Z,6.70
2018-04-15T03:48:44.065Z,7.70
2018-04-15T03:49:44.213Z,6.60
2018-04-15T03:50:44.366Z,6.30
2018-04-15T03:51:44.519Z,6.10
2018-04-15T03:52:44.671Z,5.10
2018-04-15T03:53:44.819Z,5.90
2018-04-15T03:54:44.973Z,5.90
2018-04-15T03:55:45.122Z,6.20
2018-04-15T03:56:45.271Z,6.20
2018-04-15T03:57:45.420Z,6.80
2018-04-15T03:58:45.566Z,6.40
2018-04-15T03:59:45.720Z,7.30
2018-04-15T04:00:45.870Z,6.60
2018-04-15T04:01:46.027Z,9.00
2018-04-15T04:02:46.173Z,6.90
2018-04-15T04:03:46.325Z,8.70
2018-04-15T04:04:46.471Z,7.30
2018-04-15T04:05:46.627Z,6.90
2018-04-15T04:06:46.773Z,7.30
2018-04-15T04:07:46.924Z,7.20
2018-04-15T04:08:47.077Z,6.70
2018-04-15T04:09:47.225Z,7.20
2018-04-15T04:10:47.377Z,6.50
2018-04-15T04:11:47.528Z,6.70
2018-04-15T04:12:47.676Z,7.00
2018-04-15T04:13:47.828Z,8.10
2018-04-15T04:14:47.976Z,6.40
2018-04-15T04:15:48.130Z,6.50
2018-04-15T04:16:48.282Z,6.30
2018-04-15T04:17:48.430Z,6.20
2018-04-15T04:18:48.582Z,6.40
2018-04-15T04:19:48.731Z,6.40
2018-04-15T04:20:48.880Z,6.70
2018-04-15T04:21:49.030Z,7.20
2018-04-15T04:22:49.182Z,6.80
2018-04-15T04:23:49.329Z,7.80
2018-04-15T04:24:49.479Z,7.50
2018-04-15T04:25:49.631Z,6.90
2018-04-15T04:26:49.781Z,7.30
2018-04-15T04:27:49.935Z,6.50
2018-04-15T04:28:50.086Z,6.30
2018-04-15T04:29:50.236Z,7.20
2018-04-15T04:30:50.388Z,6.40
2018-04-15T04:31:50.549Z,6.20
2018-04-15T04:32:50.690Z,6.10
2018-04-15T04:33:50.844Z,6.90
2018-04-15T04:34:50.992Z,6.60
2018-04-15T04:35:51.141Z,7.30
2018-04-15T04:36:51.287Z,6.50
2018-04-15T04:37:51.442Z,6.70
2018-04-15T04:38:51.591Z,6.10
2018-04-15T04:39:51.744Z,6.40
2018-04-15T04:40:51.898Z,6.90
2018-04-15T04:41:52.047Z,7.40
2018-04-15T04:42:52.197Z,6.70
2018-04-15T04:43:52.349Z,6.70
2018-04-15T04:44:52.495Z,6.60
2018-04-15T04:45:52.643Z,7.00
2018-04-15T04:46:52.793Z,7.50
2018-04-15T04:47:52.946Z,7.00
2018-04-15T04:48:53.096Z,6.90
2018-04-15T04:49:53.245Z,6.70
2018-04-15T04:50:53.401Z,6.60
2018-04-15T04:51:53.563Z,6.60
2018-04-15T04:52:53.699Z,6.80
2018-04-15T04:53:53.853Z,6.20
2018-04-15T04:54:54.003Z,7.50
2018-04-15T04:55:54.152Z,6.60
2018-04-15T04:56:54.304Z,7.40
2018-04-15T04:57:54.454Z,6.20
2018-04-15T04:58:54.608Z,6.50
2018-04-15T04:59:54.758Z,6.60
2018-04-15T05:00:54.910Z,6.60
2018-04-15T05:01:55.063Z,6.90
2018-04-15T05:02:55.213Z,6.10
2018-04-15T05:03:55.366Z,6.10
2018-04-15T05:04:55.517Z,6.70
2018-04-15T05:05:55.668Z,5.60
2018-04-15T05:06:55.820Z,5.60
2018-04-15T05:07:55.971Z,5.50
2018-04-15T05:08:56.122Z,6.00
2018-04-15T05:09:56.275Z,5.60
2018-04-15T05:10:56.427Z,6.00
2018-04-15T05:11:56.575Z,5.40
2018-04-15T05:12:56.723Z,5.60
2018-04-15T05:13:56.875Z,5.10
2018-04-15T05:14:57.025Z,6.20
2018-04-15T05:15:57.175Z,6.10
2018-04-15T05:16:57.323Z,7.50
2018-04-15T05:17:57.477Z,7.60
2018-04-15T05:18:57.626Z,8.20
2018-04-15T05:19:57.779Z,7.30
2018-04-15T05:20:57.929Z,6.20
2018-04-15T05:21:58.078Z,6.10
2018-04-15T05:22:58.229Z,6.00
2018-04-15T05:23:58.379Z,6.40
2018-04-15T05:24:58.533Z,6.00
2018-04-15T05:25:58.682Z,6.00
2018-04-15T05:26:58.835Z,5.70
2018-04-15T05:27:58.986Z,5.60
2018-04-15T05:28:59.138Z,5.70
2018-04-15T05:29:59.289Z,5.70
2018-04-15T05:30:59.441Z,6.30
2018-04-15T05:31:59.599Z,6.10
2018-04-15T05:32:59.747Z,5.50
2018-04-15T05:33:59.900Z,5.70
2018-04-15T05:35:00.052Z,6.00
2018-04-15T05:36:00.205Z,5.20
2018-04-15T05:37:00.351Z,6.60
2018-04-15T05:38:00.507Z,6.20
2018-04-15T05:39:00.655Z,5.80
2018-04-15T05:40:00.805Z,5.80
2018-04-15T05:41:00.956Z,5.50
2018-04-15T05:42:01.107Z,6.10
2018-04-15T05:43:01.260Z,5.70
2018-04-15T05:44:01.417Z,5.00
2018-04-15T05:45:01.581Z,6.10
2018-04-15T05:46:01.700Z,5.20
2018-04-15T05:47:01.849Z,5.80
2018-04-15T05:48:01.999Z,5.80
2018-04-15T05:49:02.149Z,5.50
2018-04-15T05:50:02.303Z,5.50
2018-04-15T05:51:02.454Z,5.70
2018-04-15T05:52:02.612Z,5.60
2018-04-15T05:53:02.755Z,5.40
2018-04-15T05:54:02.907Z,5.40
2018-04-15T05:55:03.060Z,5.00
2018-04-15T05:56:03.213Z,5.60
2018-04-15T05:57:03.363Z,5.10
2018-04-15T05:58:03.515Z,5.70
2018-04-15T05:59:03.667Z,5.70
2018-04-15T06:00:03.822Z,7.70
2018-04-15T06:01:03.971Z,6.30
2018-04-15T06:02:04.121Z,6.00
2018-04-15T06:03:04.270Z,6.20
2018-04-15T06:04:04.421Z,6.20
2018-04-15T06:05:04.573Z,5.80
2018-04-15T06:06:04.726Z,6.80
2018-04-15T06:07:04.879Z,7.40
2018-04-15T06:08:05.030Z,6.60
2018-04-15T06:09:05.183Z,6.30
2018-04-15T06:10:05.334Z,6.30
2018-04-15T06:11:05.487Z,6.20
2018-04-15T06:12:05.640Z,5.90
2018-04-15T06:13:05.789Z,6.60
2018-04-15T06:14:05.940Z,6.40
2018-04-15T06:15:06.091Z,6.80
2018-04-15T06:16:06.242Z,6.40
2018-04-15T06:17:06.396Z,6.70
2018-04-15T06:18:06.549Z,8.50
2018-04-15T06:19:06.700Z,6.50
2018-04-15T06:20:06.857Z,6.50
2018-04-15T06:21:06.997Z,6.60
2018-04-15T06:22:07.161Z,6.50
2018-04-15T06:23:07.306Z,6.90
2018-04-15T06:24:07.456Z,6.10
2018-04-15T06:25:07.610Z,6.20
2018-04-15T06:26:07.763Z,7.20
2018-04-15T06:27:07.917Z,5.60
2018-04-15T06:28:08.065Z,6.50
2018-04-15T06:29:08.216Z,5.90
2018-04-15T06:30:08.375Z,6.40
2018-04-15T06:31:08.521Z,6.10
2018-04-15T06:32:08.673Z,6.00
2018-04-15T06:33:08.826Z,6.50
2018-04-15T06:34:08.976Z,7.10
2018-04-15T06:35:09.132Z,8.20
2018-04-15T06:36:09.293Z,6.90
2018-04-15T06:37:09.439Z,6.60
2018-04-15T06:38:09.589Z,6.80
2018-04-15T06:39:09.744Z,6.50
2018-04-15T06:40:09.897Z,6.50
2018-04-15T06:41:10.050Z,6.30
2018-04-15T06:42:10.200Z,6.10
2018-04-15T06:43:10.353Z,6.90
2018-04-15T06:44:10.505Z,6.00
2018-04-15T06:45:10.656Z,5.90
2018-04-15T06:46:10.815Z,7.10
2018-04-15T06:47:10.963Z,5.90
2018-04-15T06:48:11.115Z,5.70
2018-04-15T06:49:11.277Z,6.50
2018-04-15T06:50:11.420Z,8.00
2018-04-15T06:51:11.573Z,6.90
2018-04-15T06:52:11.727Z,6.40
2018-04-15T06:53:11.879Z,5.40
2018-04-15T06:54:12.037Z,6.80
2018-04-15T06:55:12.186Z,6.10
2018-04-15T06:56:12.341Z,5.60
2018-04-15T06:57:12.494Z,6.30
2018-04-15T06:58:12.648Z,6.20
2018-04-15T06:59:12.802Z,6.00
2018-04-15T07:00:12.955Z,5.30
2018-04-15T07:01:13.107Z,8.30
2018-04-15T07:02:13.271Z,5.90
2018-04-15T07:03:13.422Z,7.40
2018-04-15T07:04:13.570Z,5.40
2018-04-15T07:05:13.727Z,5.10
2018-04-15T07:06:13.879Z,5.20
2018-04-15T07:07:14.034Z,4.90
2018-04-15T07:08:14.187Z,5.00
2018-04-15T07:09:14.338Z,5.00
2018-04-15T07:10:14.494Z,4.60
2018-04-15T07:11:14.647Z,4.90
2018-04-15T07:12:14.801Z,5.20
2018-04-15T07:13:14.956Z,5.70
2018-04-15T07:14:15.110Z,4.80
2018-04-15T07:15:15.275Z,5.10
2018-04-15T07:16:15.429Z,5.40
2018-04-15T07:17:15.586Z,4.90
2018-04-15T07:18:15.737Z,5.70
2018-04-15T07:19:15.893Z,5.50
2018-04-15T07:20:16.046Z,5.80
2018-04-15T07:21:16.201Z,5.00
2018-04-15T07:22:16.359Z,6.10
2018-04-15T07:23:16.508Z,5.20
2018-04-15T07:24:16.662Z,5.60
2018-04-15T07:25:16.817Z,5.30
2018-04-15T07:26:16.972Z,7.10
2018-04-15T07:27:17.128Z,5.70
2018-04-15T07:28:17.289Z,5.80
2018-04-15T07:29:17.437Z,5.80
2018-04-15T07:30:17.589Z,5.10
2018-04-15T07:31:17.742Z,5.50
2018-04-15T07:32:17.898Z,5.80
2018-04-15T07:33:18.050Z,6.70
2018-04-15T07:34:18.206Z,8.10
2018-04-15T07:35:18.358Z,6.50
2018-04-15T07:36:18.529Z,6.40
2018-04-15T07:37:18.666Z,5.70
2018-04-15T07:38:18.819Z,6.20
2018-04-15T07:39:18.971Z,7.70
2018-04-15T07:40:19.128Z,5.50
2018-04-15T07:41:19.280Z,7.10
2018-04-15T07:42:19.433Z,5.60
2018-04-15T07:43:19.603Z,5.10
2018-04-15T07:44:19.742Z,5.90
2018-04-15T07:45:19.895Z,5.40
2018-04-15T07:46:20.050Z,5.50
2018-04-15T07:47:20.207Z,5.60
2018-04-15T07:48:20.359Z,5.00
2018-04-15T07:49:20.513Z,6.50
2018-04-15T07:50:20.668Z,4.90
2018-04-15T07:51:20.821Z,5.50
2018-04-15T07:52:20.977Z,6.60
2018-04-15T07:53:21.127Z,5.40
2018-04-15T07:54:21.284Z,6.00
2018-04-15T07:55:21.441Z,5.40
2018-04-15T07:56:21.598Z,6.60
2018-04-15T07:57:21.751Z,7.30
2018-04-15T07:58:21.907Z,5.70
2018-04-15T07:59:22.068Z,6.00
2018-04-15T08:00:22.220Z,5.80
2018-04-15T08:01:22.376Z,5.60
2018-04-15T08:02:22.543Z,7.30
2018-04-15T08:03:22.691Z,4.60
2018-04-15T08:04:22.840Z,5.80
2018-04-15T08:05:22.995Z,6.50
2018-04-15T08:06:23.151Z,5.10
2018-04-15T08:07:23.306Z,4.70
2018-04-15T08:08:23.459Z,4.60
2018-04-15T08:09:23.614Z,5.20
2018-04-15T08:10:23.768Z,6.00
2018-04-15T08:11:23.923Z,5.10
2018-04-15T08:12:24.076Z,5.30
2018-04-15T08:13:24.229Z,5.70
2018-04-15T08:14:24.383Z,6.30
2018-04-15T08:15:24.533Z,6.50
2018-04-15T08:16:24.689Z,6.90
2018-04-15T08:17:24.843Z,8.30
2018-04-15T08:18:25.000Z,8.20
2018-04-15T08:19:25.153Z,8.70
2018-04-15T08:20:25.311Z,7.90
2018-04-15T08:21:25.462Z,8.80
2018-04-15T08:22:25.616Z,7.20
2018-04-15T08:23:25.768Z,6.70
2018-04-15T08:24:25.925Z,6.50
2018-04-15T08:25:26.077Z,5.80
2018-04-15T08:26:26.239Z,6.00
2018-04-15T08:27:26.388Z,6.70
2018-04-15T08:28:26.545Z,5.20
2018-04-15T08:29:26.699Z,4.90
2018-04-15T08:30:26.851Z,5.50
2018-04-15T08:31:27.015Z,4.70
2018-04-15T08:32:27.162Z,5.20
2018-04-15T08:33:27.315Z,5.80
2018-04-15T08:34:27.473Z,5.10
2018-04-15T08:35:27.625Z,4.70
2018-04-15T08:36:27.778Z,5.00
2018-04-15T08:37:27.934Z,5.10
2018-04-15T08:38:28.088Z,4.90
2018-04-15T08:39:28.245Z,5.20
2018-04-15T08:40:28.413Z,4.60
2018-04-15T08:41:28.565Z,5.50
2018-04-15T08:42:28.723Z,5.10
2018-04-15T08:43:28.879Z,6.00
2018-04-15T08:44:29.033Z,5.80
2018-04-15T08:45:29.187Z,7.00
2018-04-15T08:46:29.342Z,5.50
2018-04-15T08:47:29.498Z,7.10
2018-04-15T08:48:29.652Z,5.60
2018-04-15T08:49:29.810Z,6.00
2018-04-15T08:50:29.968Z,8.00
2018-04-15T08:51:30.124Z,7.00
2018-04-15T08:52:30.279Z,8.80
2018-04-15T08:53:30.432Z,6.40
2018-04-15T08:54:30.606Z,6.30
2018-04-15T08:55:30.740Z,8.40
2018-04-15T08:56:30.894Z,7.90
2018-04-15T08:57:31.055Z,6.40
2018-04-15T08:58:31.209Z,6.20
2018-04-15T08:59:31.364Z,5.50
2018-04-15T09:00:31.524Z,5.30
2018-04-15T09:01:31.683Z,5.90
2018-04-15T09:02:31.836Z,5.90
2018-04-15T09:03:31.991Z,7.60
2018-04-15T09:04:32.152Z,7.80
2018-04-15T09:05:32.311Z,8.10
2018-04-15T09:06:32.471Z,8.90
2018-04-15T09:07:32.626Z,9.80
2018-04-15T09:08:32.781Z,10.00
2018-04-15T09:09:32.939Z,10.60
2018-04-15T09:10:33.096Z,9.00
2018-04-15T09:11:33.249Z,9.10
2018-04-15T09:12:33.409Z,8.30
2018-04-15T09:13:33.563Z,9.60
2018-04-15T09:14:33.718Z,8.40
2018-04-15T09:15:33.891Z,8.40
2018-04-15T09:16:34.048Z,8.50
2018-04-15T09:17:34.207Z,8.10
2018-04-15T09:18:34.380Z,8.40
2018-04-15T09:19:34.546Z,9.60
2018-04-15T09:20:34.697Z,11.10
2018-04-15T09:21:34.858Z,10.60
2018-04-15T09:22:35.027Z,10.30
2018-04-15T09:23:35.210Z,10.60
2018-04-15T09:24:35.369Z,11.70
2018-04-15T09:25:35.536Z,9.40
2018-04-15T09:26:35.692Z,10.50
2018-04-15T09:27:35.855Z,10.20
2018-04-15T09:28:36.020Z,8.40
2018-04-15T09:29:36.197Z,8.00
2018-04-15T09:30:36.343Z,7.30
2018-04-15T09:31:36.499Z,7.50
2018-04-15T09:32:36.655Z,8.30
2018-04-15T09:33:36.810Z,7.80
2018-04-15T09:34:36.966Z,8.30
2018-04-15T09:35:37.169Z,8.40
2018-04-15T09:36:37.276Z,7.30
2018-04-15T09:37:37.430Z,9.60
2018-04-15T09:38:37.594Z,7.00
2018-04-15T09:39:37.754Z,7.70
2018-04-15T09:40:37.908Z,8.20
2018-04-15T09:41:38.062Z,9.90
2018-04-15T09:42:38.220Z,6.90
2018-04-15T09:43:38.415Z,6.50
2018-04-15T09:44:38.572Z,6.40
2018-04-15T09:45:38.737Z,6.50
2018-04-15T09:46:38.891Z,7.00
2018-04-15T09:47:39.046Z,6.90
2018-04-15T09:48:39.202Z,6.30
2018-04-15T09:49:39.358Z,6.30
2018-04-15T09:50:39.533Z,7.30
2018-04-15T09:51:39.689Z,6.60
2018-04-15T09:52:39.844Z,6.30
2018-04-15T09:53:39.999Z,5.90
2018-04-15T09:54:40.155Z,6.20
2018-04-15T09:55:40.311Z,5.70
2018-04-15T09:56:40.469Z,5.60
2018-04-15T09:57:40.627Z,5.60
2018-04-15T09:58:40.784Z,6.10
2018-04-15T09:59:40.977Z,5.80
2018-04-15T10:00:41.137Z,5.30
2018-04-15T10:01:41.290Z,6.10
2018-04-15T10:02:41.446Z,6.30
2018-04-15T10:03:41.599Z,6.30
2018-04-15T10:04:41.759Z,5.40
2018-04-15T10:05:41.918Z,5.40
2018-04-15T10:06:42.079Z,5.20
2018-04-15T10:07:42.236Z,5.20
2018-04-15T10:08:42.392Z,4.80
2018-04-15T10:09:42.548Z,4.80
2018-04-15T10:10:42.702Z,4.20
2018-04-15T10:11:42.859Z,3.80
2018-04-15T10:12:43.025Z,4.00
2018-04-15T10:13:43.186Z,4.30
2018-04-15T10:14:43.339Z,4.10
2018-04-15T10:15:43.499Z,4.20
2018-04-15T10:16:43.659Z,3.80
2018-04-15T10:17:43.814Z,4.10
2018-04-15T10:18:43.971Z,3.30
2018-04-15T10:19:44.125Z,3.40
2018-04-15T10:20:44.285Z,3.50
2018-04-15T10:21:44.441Z,4.10
2018-04-15T10:22:44.596Z,5.10
2018-04-15T10:23:44.752Z,4.80
2018-04-15T10:24:44.924Z,5.30
2018-04-15T10:25:45.080Z,4.70
2018-04-15T10:26:45.238Z,6.00
2018-04-15T10:27:45.396Z,5.10
2018-04-15T10:28:45.552Z,4.20
2018-04-15T10:29:45.727Z,4.90
2018-04-15T10:30:45.871Z,5.10
2018-04-15T10:31:46.030Z,6.20
2018-04-15T10:32:46.221Z,6.30
2018-04-15T10:33:46.350Z,6.90
2018-04-15T10:34:46.512Z,5.40
2018-04-15T10:35:46.699Z,5.30
2018-04-15T10:36:46.860Z,4.70
2018-04-15T10:37:47.016Z,4.40
2018-04-15T10:38:47.237Z,4.10
2018-04-15T10:39:47.346Z,5.00
2018-04-15T10:40:47.547Z,3.90
2018-04-15T10:41:47.755Z,5.40
2018-04-15T10:42:47.930Z,4.90
2018-04-15T10:43:48.090Z,4.80
2018-04-15T10:44:48.246Z,5.60
2018-04-15T10:45:48.423Z,6.00
2018-04-15T10:46:48.578Z,5.60
2018-04-15T10:47:48.736Z,5.20
2018-04-15T10:48:48.897Z,5.40
2018-04-15T10:49:49.052Z,6.60
2018-04-15T10:50:49.233Z,6.30
2018-04-15T10:51:49.398Z,5.50
2018-04-15T10:52:49.557Z,4.40
2018-04-15T10:53:49.711Z,4.80
2018-04-15T10:54:49.869Z,3.80
2018-04-15T10:55:50.024Z,5.20
2018-04-15T10:56:50.180Z,4.90
2018-04-15T10:57:50.341Z,4.30
2018-04-15T10:58:50.504Z,4.80
2018-04-15T10:59:50.664Z,3.90
2018-04-15T11:00:50.814Z,3.60
2018-04-15T11:01:50.976Z,4.20
2018-04-15T11:02:51.129Z,3.20
2018-04-15T11:03:51.285Z,4.30
2018-04-15T11:04:51.446Z,4.10
2018-04-15T11:05:51.604Z,3.70
2018-04-15T11:06:51.776Z,4.10
2018-04-15T11:07:51.935Z,4.00
2018-04-15T11:08:52.092Z,3.70
2018-04-15T11:09:52.249Z,3.40
2018-04-15T11:10:52.409Z,3.50
2018-04-15T11:11:52.566Z,3.70
2018-04-15T11:12:52.724Z,3.60
2018-04-15T11:13:52.906Z,3.30
2018-04-15T11:14:53.047Z,3.20
2018-04-15T11:15:53.201Z,3.90
2018-04-15T11:16:53.361Z,3.70
2018-04-15T11:17:53.518Z,3.50
2018-04-15T11:18:53.680Z,3.80
2018-04-15T11:19:53.889Z,4.10
2018-04-15T11:20:54.048Z,4.10
2018-04-15T11:21:54.205Z,3.30
2018-04-15T11:22:54.365Z,3.20
2018-04-15T11:23:54.528Z,4.00
2018-04-15T11:24:54.693Z,3.50
2018-04-15T11:25:54.851Z,4.20
2018-04-15T11:26:55.009Z,3.60
2018-04-15T11:27:55.171Z,2.70
2018-04-15T11:28:55.402Z,3.60
2018-04-15T11:29:55.537Z,3.80
2018-04-15T11:30:55.696Z,3.50
2018-04-15T11:31:55.855Z,3.30
2018-04-15T11:32:56.017Z,3.30
2018-04-15T11:33:56.179Z,4.90
2018-04-15T11:34:56.344Z,4.40
2018-04-15T11:35:56.509Z,3.80
2018-04-15T11:36:56.669Z,3.20
2018-04-15T11:37:56.829Z,4.20
2018-04-15T11:38:56.983Z,3.30
2018-04-15T11:39:57.146Z,3.20
2018-04-15T11:40:57.305Z,3.50
2018-04-15T11:41:57.465Z,3.00
2018-04-15T11:42:57.630Z,3.90
2018-04-15T11:43:57.787Z,4.30
2018-04-15T11:44:57.944Z,4.30
2018-04-15T11:45:58.103Z,3.80
2018-04-15T11:46:58.260Z,4.20
2018-04-15T11:47:58.420Z,3.80
2018-04-15T11:48:58.581Z,4.50
2018-04-15T11:49:58.739Z,3.60
2018-04-15T11:50:58.899Z,3.30
2018-04-15T11:51:59.060Z,5.30
2018-04-15T11:52:59.232Z,3.70
2018-04-15T11:53:59.395Z,4.10
2018-04-15T11:54:59.550Z,3.90
2018-04-15T11:55:59.709Z,4.30
2018-04-15T11:56:59.870Z,4.00
2018-04-15T11:58:00.034Z,4.70
2018-04-15T11:59:00.189Z,5.00
2018-04-15T12:00:00.347Z,4.00
2018-04-15T12:01:00.506Z,3.80
2018-04-15T12:02:00.665Z,4.30
2018-04-15T12:03:00.829Z,4.10
2018-04-15T12:04:00.987Z,3.70
2018-04-15T12:05:01.147Z,4.20
2018-04-15T12:06:01.307Z,3.90
2018-04-15T12:07:01.467Z,3.90
2018-04-15T12:08:01.672Z,3.40
2018-04-15T12:09:01.786Z,3.50
2018-04-15T12:10:01.947Z,3.50
2018-04-15T12:11:02.108Z,4.80
2018-04-15T12:12:02.267Z,3.50
2018-04-15T12:13:02.428Z,3.20
2018-04-15T12:14:02.586Z,3.20
2018-04-15T12:15:02.744Z,4.10
2018-04-15T12:16:02.905Z,2.90
2018-04-15T12:17:03.065Z,4.60
2018-04-15T12:18:03.225Z,3.10
2018-04-15T12:19:03.384Z,3.10
2018-04-15T12:20:03.553Z,3.00
2018-04-15T12:21:03.714Z,3.10
2018-04-15T12:22:03.880Z,3.30
2018-04-15T12:23:04.053Z,3.10
2018-04-15T12:24:04.216Z,3.40
2018-04-15T12:25:04.377Z,2.60
2018-04-15T12:26:04.535Z,3.30
2018-04-15T12:27:04.692Z,2.90
2018-04-15T12:28:04.855Z,3.00
2018-04-15T12:29:05.018Z,3.10
2018-04-15T12:30:05.179Z,3.70
2018-04-15T12:31:05.339Z,3.90
2018-04-15T12:32:05.496Z,3.70
2018-04-15T12:33:05.661Z,3.20
2018-04-15T12:34:05.818Z,3.60
2018-04-15T12:35:05.978Z,3.30
2018-04-15T12:36:06.136Z,3.20
2018-04-15T12:37:06.303Z,2.80
2018-04-15T12:38:06.464Z,3.00
2018-04-15T12:39:06.622Z,2.30
2018-04-15T12:40:06.783Z,2.20
2018-04-15T12:41:06.942Z,2.90
2018-04-15T12:42:07.100Z,3.40
2018-04-15T12:43:07.266Z,2.70
2018-04-15T12:44:07.425Z,3.00
2018-04-15T12:45:07.590Z,3.00
2018-04-15T12:46:07.741Z,2.40
2018-04-15T12:47:07.898Z,2.60
2018-04-15T12:48:08.059Z,2.70
2018-04-15T12:49:08.219Z,2.30
2018-04-15T12:50:08.379Z,2.40
2018-04-15T12:51:08.538Z,2.50
2018-04-15T12:52:08.699Z,2.80
2018-04-15T12:53:08.857Z,3.00
2018-04-15T12:54:09.018Z,2.30
2018-04-15T12:55:09.180Z,2.60
2018-04-15T12:56:09.338Z,3.10
2018-04-15T12:57:09.502Z,2.50
2018-04-15T12:58:09.658Z,2.40
2018-04-15T12:59:09.820Z,2.30
2018-04-15T13:00:09.979Z,2.40
2018-04-15T13:01:10.137Z,2.40
2018-04-15T13:02:10.299Z,2.70
2018-04-15T13:03:10.457Z,2.50
2018-04-15T13:04:10.623Z,2.20
2018-04-15T13:05:10.776Z,2.80
2018-04-15T13:06:10.950Z,2.30
2018-04-15T13:07:11.093Z,2.30
2018-04-15T13:08:11.254Z,3.10
2018-04-15T13:09:11.414Z,2.10
2018-04-15T13:10:11.576Z,2.70
2018-04-15T13:11:11.738Z,2.30
2018-04-15T13:12:11.899Z,2.70
2018-04-15T13:13:12.061Z,2.10
2018-04-15T13:14:12.225Z,2.80
2018-04-15T13:15:12.383Z,2.40
2018-04-15T13:16:12.543Z,2.70
2018-04-15T13:17:12.703Z,2.70
2018-04-15T13:18:12.864Z,2.30
2018-04-15T13:19:13.023Z,2.40
2018-04-15T13:20:13.183Z,2.30